Time;durP1;ratioP1;P1;durP2;ratioP2;P2;SDS_P1;SDS_P2;PMS_P1;PMS_P2;Temp;Humidity;BMP_temperature;BMP_pressure;BME280_temperature;BME280_humidity;BME280_pressure;Samples;Min_cycle;Max_cycle;Signal;HPM_P1;HPM_P2
2023/07/28 00:02:16;;;;;;;0.10;0.10;;;;;;;14.52;100.00;95740.56;5037527;28;20052;-77
2023/07/28 00:05:02;;;;;;;0.10;0.10;;;;;;;14.57;100.00;95746.69;5024525;28;20570;-77
2023/07/28 00:07:48;;;;;;;0.10;0.10;;;;;;;14.59;100.00;95736.41;5036461;28;20533;-77
2023/07/28 00:10:40;;;;;;;0.10;0.10;;;;;;;14.51;100.00;95739.75;5036558;28;20037;-76
2023/07/28 00:13:25;;;;;;;0.13;0.13;;;;;;;14.52;100.00;95740.56;5038419;28;20070;-76
2023/07/28 00:16:11;;;;;;;0.10;0.10;;;;;;;14.45;100.00;95738.19;5039286;28;20049;-76
2023/07/28 00:18:57;;;;;;;0.10;0.10;;;;;;;14.34;100.00;95737.53;5036929;28;20560;-75
2023/07/28 00:21:43;;;;;;;0.10;0.10;;;;;;;14.51;100.00;95744.34;5021434;28;20045;-77
2023/07/28 00:24:29;;;;;;;0.10;0.10;;;;;;;14.62;100.00;95738.50;5037714;28;20037;-78
2023/07/28 00:27:14;;;;;;;0.20;0.20;;;;;;;14.65;100.00;95747.91;5037535;28;20048;-76
2023/07/28 00:30:00;;;;;;;0.20;0.20;;;;;;;14.61;100.00;95744.19;5030718;28;20107;-76
2023/07/28 00:32:47;;;;;;;0.10;0.10;;;;;;;14.66;100.00;95747.63;5034076;28;20488;-77
2023/07/28 00:35:33;;;;;;;0.10;0.10;;;;;;;14.66;100.00;95742.25;5034836;28;20079;-77
2023/07/28 00:38:19;;;;;;;0.10;0.10;;;;;;;14.65;100.00;95737.94;5034390;28;20083;-76
2023/07/28 00:41:05;;;;;;;0.10;0.10;;;;;;;14.53;100.00;95744.84;5033188;28;20467;-77
2023/07/28 00:43:51;;;;;;;0.20;0.20;;;;;;;14.49;100.00;95739.25;5036785;28;20609;-77
2023/07/28 00:46:37;;;;;;;0.10;0.10;;;;;;;14.57;100.00;95735.91;5037635;28;20044;-77
2023/07/28 00:49:23;;;;;;;0.10;0.10;;;;;;;14.39;100.00;95744.72;5023734;28;20436;-76
2023/07/28 00:52:09;;;;;;;0.10;0.10;;;;;;;14.46;100.00;95746.00;5033025;28;20045;-78
2023/07/28 00:54:55;;;;;;;0.20;0.20;;;;;;;14.42;100.00;95730.72;5037678;28;20051;-77
2023/07/28 00:57:40;;;;;;;0.20;0.20;;;;;;;14.45;100.00;95724.72;5037021;28;20307;-76
2023/07/28 01:00:26;;;;;;;0.20;0.20;;;;;;;14.53;100.00;95734.09;5035385;28;20040;-77
2023/07/28 01:03:14;;;;;;;0.10;0.10;;;;;;;14.36;100.00;95729.16;5038224;28;20569;-78
2023/07/28 01:06:09;;;;;;;0.20;0.20;;;;;;;14.33;100.00;95740.53;5021036;28;20202;-76
2023/07/28 01:09:12;;;;;;;0.10;0.10;;;;;;;14.38;100.00;95730.47;5020858;28;20047;-77
2023/07/28 01:11:58;;;;;;;0.10;0.10;;;;;;;14.50;100.00;95740.84;5020518;28;20361;-76
2023/07/28 01:14:44;;;;;;;0.20;0.20;;;;;;;14.46;100.00;95731.75;5036442;28;20602;-78
2023/07/28 01:17:30;;;;;;;0.10;0.10;;;;;;;14.52;100.00;95737.88;5034638;28;20066;-76
2023/07/28 01:20:17;;;;;;;0.20;0.20;;;;;;;14.44;100.00;95736.59;5021586;28;20040;-78
2023/07/28 01:23:18;;;;;;;0.10;0.10;;;;;;;14.44;100.00;95728.53;5034668;28;20102;-78
2023/07/28 01:26:10;;;;;;;0.10;0.10;;;;;;;14.40;100.00;95719.44;5037769;28;21312;-76
2023/07/28 01:28:58;;;;;;;0.20;0.20;;;;;;;14.42;100.00;95717.25;5036514;28;20609;-76
2023/07/28 01:31:46;;;;;;;0.20;0.20;;;;;;;14.37;100.00;95723.50;5035745;28;20163;-78
2023/07/28 01:34:33;;;;;;;0.20;0.20;;;;;;;14.37;100.00;95720.00;5036904;28;20037;-78
2023/07/28 01:37:19;;;;;;;0.10;0.10;;;;;;;14.41;100.00;95718.34;5036010;28;20379;-78
2023/07/28 01:40:06;;;;;;;0.10;0.10;;;;;;;14.37;100.00;95723.50;5033755;28;20121;-77
2023/07/28 01:42:52;;;;;;;0.10;0.10;;;;;;;14.41;100.00;95719.16;5032091;28;20569;-77
2023/07/28 01:45:38;;;;;;;0.10;0.10;;;;;;;14.52;100.00;95719.81;5036398;28;20041;-78
2023/07/28 01:48:24;;;;;;;0.20;0.20;;;;;;;14.44;100.00;95717.75;5036559;28;20376;-76
2023/07/28 01:51:10;;;;;;;0.15;0.15;;;;;;;14.45;100.00;95713.97;5036180;28;20041;-77
2023/07/28 01:53:56;;;;;;;0.20;0.20;;;;;;;14.36;100.00;95721.91;5017782;28;20168;-77
2023/07/28 01:56:42;;;;;;;0.20;0.20;;;;;;;14.36;100.00;95716.50;5037080;28;20698;-76
2023/07/28 01:59:28;;;;;;;0.13;0.13;;;;;;;14.30;100.00;95709.59;5034935;28;20239;-77
2023/07/28 02:02:14;;;;;;;0.10;0.10;;;;;;;14.34;100.00;95713.31;5022965;28;20422;-76
2023/07/28 02:05:01;;;;;;;0.20;0.20;;;;;;;14.46;100.00;95719.09;5018899;28;20679;-79
2023/07/28 02:07:47;;;;;;;0.10;0.10;;;;;;;14.57;100.00;95719.75;5021897;28;20041;-78
2023/07/28 02:10:33;;;;;;;0.10;0.10;;;;;;;14.59;100.00;95722.16;5030996;28;20658;-77
2023/07/28 02:13:19;;;;;;;0.10;0.10;;;;;;;14.63;100.00;95720.47;5033519;28;20411;-78
2023/07/28 02:16:05;;;;;;;0.10;0.10;;;;;;;14.53;100.00;95710.66;5021686;28;20096;-77
2023/07/28 02:18:51;;;;;;;0.10;0.10;;;;;;;14.60;100.00;95719.16;5031950;28;20044;-77
2023/07/28 02:21:36;;;;;;;0.10;0.10;;;;;;;14.59;100.00;95717.56;5032148;28;20045;-77
2023/07/28 02:24:22;;;;;;;0.10;0.10;;;;;;;14.55;100.00;95721.13;5035888;28;20044;-76
2023/07/28 02:27:08;;;;;;;0.20;0.20;;;;;;;14.54;100.00;95714.13;5034196;28;20048;-79
2023/07/28 02:29:54;;;;;;;0.20;0.20;;;;;;;14.59;100.00;95728.34;5015270;28;20802;-78
2023/07/28 02:32:40;;;;;;;0.13;0.13;;;;;;;14.60;100.00;95719.16;5035581;28;20502;-77
2023/07/28 02:35:26;;;;;;;0.10;0.10;;;;;;;14.53;100.00;95717.94;5020198;28;20997;-78
2023/07/28 02:38:12;;;;;;;0.10;0.10;;;;;;;14.64;100.00;95724.78;5032906;28;20078;-76
2023/07/28 02:40:58;;;;;;;0.10;0.10;;;;;;;14.67;100.00;95719.59;5032072;28;20033;-78
2023/07/28 02:43:44;;;;;;;0.20;0.20;;;;;;;14.64;100.00;95714.81;5016485;28;20063;-79
2023/07/28 02:46:30;;;;;;;0.20;0.20;;;;;;;14.68;100.00;95723.91;5020798;28;20406;-76
2023/07/28 02:49:16;;;;;;;0.20;0.20;;;;;;;14.66;100.00;95723.41;5021630;28;20036;-79
2023/07/28 02:52:03;;;;;;;0.10;0.10;;;;;;;14.65;100.00;95721.78;5032889;28;20429;-77
2023/07/28 02:54:50;;;;;;;0.20;0.20;;;;;;;14.66;100.00;95730.66;5019370;28;20070;-77
2023/07/28 02:57:36;;;;;;;0.17;0.17;;;;;;;14.74;100.00;95730.00;5018631;28;20094;-76
2023/07/28 03:00:21;;;;;;;0.20;0.20;;;;;;;14.75;100.00;95731.59;5033880;28;20056;-77
2023/07/28 03:03:10;;;;;;;0.10;0.10;;;;;;;14.76;100.00;95734.00;5031184;28;20052;-77
2023/07/28 03:05:56;;;;;;;0.20;0.20;;;;;;;14.76;100.00;95725.13;5020812;28;20046;-77
2023/07/28 03:08:44;;;;;;;0.20;0.20;;;;;;;14.70;100.00;95715.50;5021919;28;20300;-79
2023/07/28 03:11:48;;;;;;;0.10;0.10;;;;;;;14.73;100.00;95731.91;5018451;28;20033;-78
2023/07/28 03:14:34;;;;;;;0.10;0.10;;;;;;;14.79;100.00;95721.06;5035292;28;20044;-77
2023/07/28 03:17:20;;;;;;;0.10;0.10;;;;;;;14.71;100.00;95734.09;5034549;28;20053;-77
2023/07/28 03:20:06;;;;;;;0.10;0.10;;;;;;;14.75;100.00;95731.59;5032807;28;20050;-79
2023/07/28 03:22:52;;;;;;;0.10;0.10;;;;;;;14.73;100.00;95734.59;5004629;28;20047;-76
2023/07/28 03:25:38;;;;;;;0.15;0.15;;;;;;;14.75;100.00;95728.91;5031719;28;20045;-77
2023/07/28 03:28:24;;;;;;;0.10;0.10;;;;;;;14.83;100.00;95730.94;5035342;28;20071;-78
2023/07/28 03:31:10;;;;;;;0.10;0.10;;;;;;;14.84;100.00;95723.66;5032336;28;20073;-77
2023/07/28 03:33:56;;;;;;;0.10;0.10;;;;;;;14.84;100.00;95729.06;5019310;28;20544;-77
2023/07/28 03:36:45;;;;;;;0.20;0.20;;;;;;;14.81;100.00;95729.66;5020351;28;20870;-78
2023/07/28 03:39:31;;;;;;;0.10;0.10;;;;;;;14.83;100.00;95727.44;5018573;28;20041;-76
2023/07/28 03:42:17;;;;;;;0.10;0.10;;;;;;;14.86;100.00;95732.25;5019768;28;20477;-78
2023/07/28 03:45:04;;;;;;;0.15;0.15;;;;;;;14.89;100.00;95742.44;5030143;28;20499;-77
2023/07/28 03:47:50;;;;;;;0.10;0.10;;;;;;;14.89;100.00;95731.69;5032498;28;20362;-77
2023/07/28 03:50:36;;;;;;;0.20;0.20;;;;;;;14.90;100.00;95726.00;5032265;28;20045;-77
2023/07/28 03:53:22;;;;;;;0.20;0.20;;;;;;;14.86;100.00;95730.34;5029103;28;20045;-79
2023/07/28 03:56:07;;;;;;;0.20;0.20;;;;;;;14.84;100.00;95729.06;5015781;28;20119;-78
2023/07/28 03:58:54;;;;;;;0.20;0.20;;;;;;;14.85;100.00;95733.34;5016533;28;20062;-77
2023/07/28 04:01:40;;;;;;;0.10;0.10;;;;;;;14.89;100.00;95729.78;5029595;28;20046;-78
2023/07/28 04:04:26;;;;;;;0.20;0.20;;;;;;;14.89;100.00;95727.09;5019513;28;20053;-77
2023/07/28 04:07:11;;;;;;;0.20;0.20;;;;;;;14.89;100.00;95727.09;5034401;28;20499;-77
2023/07/28 04:09:57;;;;;;;0.13;0.13;;;;;;;14.82;100.00;95733.94;5020585;28;20036;-77
2023/07/28 04:12:43;;;;;;;0.10;0.10;;;;;;;14.86;100.00;95729.56;5036597;28;20320;-78
2023/07/28 04:15:29;;;;;;;0.20;0.20;;;;;;;14.84;100.00;95732.53;5018753;28;20043;-77
2023/07/28 04:18:15;;;;;;;0.20;0.20;;;;;;;14.89;100.00;95740.56;5038114;28;20384;-78
2023/07/28 04:21:00;;;;;;;0.10;0.10;;;;;;;14.85;100.00;95728.75;5037948;28;20049;-77
2023/07/28 04:23:46;;;;;;;0.20;0.20;;;;;;;14.98;100.00;95740.69;5039473;28;20041;-76
2023/07/28 04:26:32;;;;;;;0.17;0.17;;;;;;;14.93;100.00;95730.78;5020921;28;20095;-76
2023/07/28 04:29:21;;;;;;;0.10;0.10;;;;;;;14.99;100.00;95750.38;5034849;28;20039;-77
2023/07/28 04:32:07;;;;;;;0.10;0.10;;;;;;;14.99;100.00;95747.66;5035929;28;20052;-76
2023/07/28 04:34:53;;;;;;;0.10;0.10;;;;;;;15.00;100.00;95741.97;5037324;28;20164;-78
2023/07/28 04:37:59;;;;;;;0.20;0.20;;;;;;;15.07;100.00;95747.00;5024677;28;20068;-77
2023/07/28 04:41:05;;;;;;;0.20;0.20;;;;;;;15.12;100.00;95748.81;5035109;28;20056;-78
2023/07/28 04:44:11;;;;;;;0.20;0.20;;;;;;;15.17;100.00;95760.31;5024194;28;20072;-77
2023/07/28 04:47:00;;;;;;;0.20;0.20;;;;;;;15.27;100.00;95757.47;5036290;28;20457;-78
2023/07/28 04:49:46;;;;;;;0.10;0.10;;;;;;;15.32;100.00;95756.56;5025527;28;20045;-76
2023/07/28 04:52:31;;;;;;;0.20;0.20;;;;;;;15.27;100.00;95759.38;5038348;28;20705;-77
2023/07/28 04:55:56;;;;;;;0.20;0.20;;;;;;;15.36;100.00;95765.66;4956062;28;20042;-78
2023/07/28 04:58:42;;;;;;;0.10;0.10;;;;;;;15.46;100.00;95770.09;4958657;28;20062;-78
2023/07/28 05:01:28;;;;;;;0.10;0.10;;;;;;;15.41;100.00;95770.16;5017240;28;20345;-77
2023/07/28 05:04:14;;;;;;;0.20;0.20;;;;;;;15.44;100.00;95770.38;5021067;28;20675;-77
2023/07/28 05:07:00;;;;;;;0.10;0.10;;;;;;;15.51;100.00;95765.41;5023094;28;20769;-77
2023/07/28 05:09:46;;;;;;;0.10;0.10;;;;;;;15.47;100.00;95767.09;5038341;28;20040;-78
2023/07/28 05:12:31;;;;;;;0.20;0.20;;;;;;;15.48;100.00;95774.06;5037762;28;20051;-78
2023/07/28 05:15:17;;;;;;;0.20;0.20;;;;;;;15.55;100.00;95771.00;5022756;28;20280;-79
2023/07/28 05:18:03;;;;;;;0.13;0.13;;;;;;;15.57;100.00;95776.91;5025130;28;20247;-79
2023/07/28 05:21:05;;;;;;;0.20;0.20;;;;;;;15.53;100.00;95784.78;5038384;28;20043;-78
2023/07/28 05:23:51;;;;;;;0.20;0.20;;;;;;;15.63;100.00;95774.94;5025189;28;20430;-79
2023/07/28 05:26:37;;;;;;;0.20;0.20;;;;;;;15.64;100.00;95769.28;5036819;28;20088;-79
2023/07/28 05:29:23;;;;;;;0.10;0.10;;;;;;;15.65;100.00;95765.47;5037670;28;20521;-79
2023/07/28 05:32:14;;;;;;;0.10;0.10;;;;;;;15.50;100.00;95771.91;5021718;28;20049;-78
2023/07/28 05:35:20;;;;;;;0.10;0.10;;;;;;;15.67;100.00;95773.28;5022003;28;20051;-78
2023/07/28 05:38:06;;;;;;;0.20;0.20;;;;;;;15.68;100.00;95772.97;5020853;28;20053;-77
2023/07/28 05:40:57;;;;;;;0.20;0.20;;;;;;;15.83;100.00;95774.59;5034655;28;20036;-78
2023/07/28 05:43:43;;;;;;;0.20;0.20;;;;;;;15.77;100.00;95765.78;5023157;28;20099;-77
2023/07/28 05:46:29;;;;;;;0.17;0.17;;;;;;;15.53;100.00;95781.28;5036137;28;20487;-77
2023/07/28 05:49:17;;;;;;;0.20;0.20;;;;;;;15.62;100.00;95779.53;5034334;28;20124;-77
2023/07/28 05:52:03;;;;;;;0.10;0.10;;;;;;;15.65;100.00;95784.34;5020959;28;20052;-78
2023/07/28 05:54:49;;;;;;;0.10;0.10;;;;;;;15.56;100.00;95778.00;5031703;28;20033;-78
2023/07/28 05:57:35;;;;;;;0.10;0.10;;;;;;;15.58;100.00;95781.22;5008689;28;20581;-78
2023/07/28 06:00:24;;;;;;;0.20;0.20;;;;;;;15.68;100.00;95786.44;5023077;28;20588;-78
2023/07/28 06:03:13;;;;;;;0.20;0.20;;;;;;;15.78;100.00;95788.16;5021220;28;20056;-79
2023/07/28 06:06:14;;;;;;;0.20;0.20;;;;;;;15.72;100.00;95795.56;5036176;28;20043;-79
2023/07/28 06:09:00;;;;;;;0.20;0.20;;;;;;;15.85;100.00;95786.66;5033225;28;20040;-79
2023/07/28 06:11:46;;;;;;;0.20;0.20;;;;;;;15.98;100.00;95781.59;4996429;28;20044;-78
2023/07/28 06:14:32;;;;;;;0.20;0.20;;;;;;;16.13;100.00;95784.81;5021334;28;20033;-78
2023/07/28 06:17:19;;;;;;;0.20;0.20;;;;;;;16.24;100.00;95777.28;4943964;28;20310;-78
2023/07/28 06:20:06;;;;;;;0.10;0.10;;;;;;;16.25;100.00;95791.59;5035923;28;20068;-78
2023/07/28 06:22:52;;;;;;;0.20;0.20;;;;;;;16.24;100.00;95782.69;5023432;28;20045;-78
2023/07/28 06:25:44;;;;;;;0.10;0.10;;;;;;;16.29;100.00;95784.50;5036089;28;20048;-78
2023/07/28 06:28:30;;;;;;;0.20;0.20;;;;;;;16.15;100.00;95792.59;5021726;28;20036;-77
2023/07/28 06:31:16;;;;;;;0.20;0.20;;;;;;;16.04;100.00;95793.91;4991194;28;20158;-78
2023/07/28 06:34:02;;;;;;;0.20;0.20;;;;;;;16.17;100.00;95801.19;5033018;28;20550;-77
2023/07/28 06:36:49;;;;;;;0.10;0.10;;;;;;;16.31;100.00;95804.69;5034606;28;20395;-78
2023/07/28 06:39:34;;;;;;;0.20;0.20;;;;;;;16.37;100.00;95797.28;5020174;28;20044;-78
2023/07/28 06:42:23;;;;;;;0.10;0.10;;;;;;;16.42;100.00;95803.41;5035055;28;20428;-78
2023/07/28 06:45:14;;;;;;;0.10;0.10;;;;;;;16.32;100.00;95803.59;5023203;28;20036;-77
2023/07/28 06:48:00;;;;;;;0.20;0.20;;;;;;;16.26;100.00;95804.78;5036491;28;20047;-77
2023/07/28 06:50:45;;;;;;;0.10;0.10;;;;;;;16.36;100.00;95820.78;5020499;28;20078;-76
2023/07/28 06:53:31;;;;;;;0.10;0.10;;;;;;;16.63;100.00;95802.97;5033984;28;20094;-77
2023/07/28 06:56:17;;;;;;;0.10;0.10;;;;;;;16.80;100.00;95803.16;5035088;28;20526;-77
2023/07/28 06:59:03;;;;;;;0.15;0.15;;;;;;;16.86;100.00;95804.66;5034702;28;20036;-77
2023/07/28 07:01:49;;;;;;;0.17;0.17;;;;;;;16.71;100.00;95805.78;5032405;28;20065;-79
2023/07/28 07:04:35;;;;;;;0.20;0.20;;;;;;;16.91;100.00;95807.25;5035299;28;20503;-77
2023/07/28 07:07:21;;;;;;;0.10;0.10;;;;;;;17.11;100.00;95810.59;5032133;28;20047;-78
2023/07/28 07:10:08;;;;;;;0.20;0.20;;;;;;;17.37;100.00;95818.91;5017336;28;20052;-78
2023/07/28 07:12:56;;;;;;;0.20;0.20;;;;;;;17.22;100.00;95817.38;5015660;28;20048;-77
2023/07/28 07:15:42;;;;;;;0.20;0.20;;;;;;;17.35;100.00;95819.22;5035779;28;20041;-77
2023/07/28 07:18:28;;;;;;;0.10;0.10;;;;;;;17.41;100.00;95817.97;5032248;28;20037;-77
2023/07/28 07:21:14;;;;;;;0.20;0.20;;;;;;;17.30;100.00;95818.53;5034219;28;20037;-78
2023/07/28 07:24:00;;;;;;;0.20;0.20;;;;;;;17.25;100.00;95822.16;5032950;28;20076;-78
2023/07/28 07:26:45;;;;;;;0.10;0.10;;;;;;;17.18;100.00;95813.66;5033185;28;20442;-78
2023/07/28 07:29:32;;;;;;;0.10;0.10;;;;;;;17.21;100.00;95821.19;5035692;28;20044;-79
2023/07/28 07:32:18;;;;;;;0.17;0.17;;;;;;;17.26;100.00;95821.03;5034061;28;20592;-78
2023/07/28 07:35:05;;;;;;;0.10;0.10;;;;;;;17.34;100.00;95823.03;5006038;28;20043;-77
2023/07/28 07:37:50;;;;;;;0.10;0.10;;;;;;;17.25;100.00;95822.94;5034658;28;20254;-77
2023/07/28 07:40:37;;;;;;;0.10;0.10;;;;;;;17.21;100.00;95832.00;5033497;28;20037;-77
2023/07/28 07:43:22;;;;;;;0.10;0.10;;;;;;;17.45;100.00;95835.22;5037655;28;20059;-79
2023/07/28 07:46:08;;;;;;;0.10;0.10;;;;;;;17.52;100.00;95837.50;5020641;28;20041;-79
2023/07/28 07:48:54;;;;;;;0.10;0.10;;;;;;;17.37;100.00;95852.16;5032328;28;20048;-77
2023/07/28 07:51:40;;;;;;;0.10;0.10;;;;;;;17.37;100.00;95846.75;5040155;28;20141;-77
2023/07/28 07:54:27;;;;;;;0.10;0.10;;;;;;;17.38;100.00;95859.16;5038276;28;20036;-78
2023/07/28 07:57:12;;;;;;;0.20;0.20;;;;;;;17.40;100.00;95846.13;5036820;28;20051;-78
2023/07/28 07:59:58;;;;;;;0.10;0.10;;;;;;;17.31;100.00;95853.38;5038215;28;20041;-77
2023/07/28 08:02:44;;;;;;;0.20;0.20;;;;;;;17.20;100.00;95866.34;5036188;28;20688;-78
2023/07/28 08:05:30;;;;;;;0.20;0.20;;;;;;;17.17;100.00;95863.44;5037898;28;20124;-77
2023/07/28 08:08:19;;;;;;;0.15;0.15;;;;;;;17.24;100.00;95863.81;5039670;28;20048;-76
2023/07/28 08:11:05;;;;;;;0.20;0.20;;;;;;;17.35;100.00;95867.88;5036337;28;20041;-79
2023/07/28 08:13:51;;;;;;;0.20;0.20;;;;;;;17.48;100.00;95871.66;5036359;28;20048;-79
2023/07/28 08:16:38;;;;;;;0.20;0.20;;;;;;;17.65;100.00;95876.38;5023527;28;20103;-79
2023/07/28 08:19:23;;;;;;;0.17;0.17;;;;;;;17.60;100.00;95881.94;5035830;28;20037;-77
2023/07/28 08:22:12;;;;;;;0.20;0.20;;;;;;;17.70;100.00;95889.81;5035374;28;20372;-77
2023/07/28 08:24:58;;;;;;;0.20;0.20;;;;;;;18.03;100.00;95877.63;5035909;28;20103;-78
2023/07/28 08:27:43;;;;;;;0.20;0.20;;;;;;;17.75;100.00;95887.81;5039809;28;20041;-77
2023/07/28 08:30:31;;;;;;;0.20;0.20;;;;;;;17.73;100.00;95889.22;5035498;28;20037;-79
2023/07/28 08:33:17;;;;;;;0.10;0.10;;;;;;;17.63;100.00;95884.81;5035612;28;20036;-79
2023/07/28 08:36:03;;;;;;;0.20;0.20;;;;;;;17.49;100.00;95878.66;5037477;28;20037;-76
2023/07/28 08:38:49;;;;;;;0.10;0.10;;;;;;;17.44;100.00;95897.72;5021992;28;20099;-79
2023/07/28 08:41:35;;;;;;;0.10;0.10;;;;;;;17.41;100.00;95888.28;5037844;28;20044;-79
2023/07/28 08:44:21;;;;;;;0.20;0.20;;;;;;;17.55;100.00;95897.16;5037263;28;20044;-78
2023/07/28 08:47:07;;;;;;;0.10;0.10;;;;;;;17.58;100.00;95900.34;5023400;28;20381;-77
2023/07/28 08:49:53;;;;;;;0.20;0.20;;;;;;;17.81;100.00;95899.28;5025252;28;20040;-77
2023/07/28 08:52:38;;;;;;;0.20;0.20;;;;;;;18.38;100.00;95886.75;5036908;28;20546;-77
2023/07/28 08:55:24;;;;;;;0.20;0.20;;;;;;;18.46;100.00;95887.09;5038554;28;20495;-77
2023/07/28 08:58:26;;;;;;;0.20;0.20;;;;;;;18.63;100.00;95889.88;5021660;28;20048;-78
2023/07/28 09:01:12;;;;;;;;;;;;;;;19.17;100.00;95890.53;5035248;28;20203;-77
2023/07/28 09:03:58;;;;;;;0.20;0.20;;;;;;;19.49;100.00;95876.50;5035624;28;20361;-79
2023/07/28 09:06:45;;;;;;;0.20;0.20;;;;;;;19.37;100.00;95875.53;5035399;28;20673;-78
2023/07/28 09:09:32;;;;;;;0.20;0.20;;;;;;;19.31;100.00;95874.13;5035255;28;20592;-79
2023/07/28 09:12:23;;;;;;;0.20;0.20;;;;;;;19.49;100.00;95881.13;5037224;28;20040;-80
2023/07/28 09:15:09;;;;;;;0.20;0.20;;;;;;;19.62;100.00;95884.84;5037572;28;20064;-78
2023/07/28 09:17:55;;;;;;;0.20;0.20;;;;;;;19.50;100.00;95893.56;5035604;28;21635;-79
2023/07/28 09:20:42;;;;;;;0.10;0.10;;;;;;;19.16;100.00;95888.94;5036113;28;20506;-80
2023/07/28 09:23:29;;;;;;;0.20;0.20;;;;;;;19.03;100.00;95885.22;5035463;28;20634;-78
2023/07/28 09:26:16;;;;;;;0.10;0.10;;;;;;;19.35;100.00;95892.13;5034196;28;20036;-77
2023/07/28 09:29:14;;;;;;;0.10;0.10;;;;;;;20.03;100.00;95882.41;5036287;28;20033;-78
2023/07/28 09:32:05;;;;;;;0.10;0.10;;;;;;;20.40;100.00;95885.50;5035815;28;20627;-79
2023/07/28 09:35:05;;;;;;;0.15;0.15;;;;;;;20.33;100.00;95892.56;5037838;28;20573;-78
2023/07/28 09:37:52;;;;;;;0.20;0.20;;;;;;;20.52;100.00;95896.50;5033676;28;20585;-78
2023/07/28 09:40:40;;;;;;;0.10;0.10;;;;;;;20.57;100.00;95895.53;5036296;28;20045;-79
2023/07/28 09:43:26;;;;;;;0.10;0.10;;;;;;;20.38;100.00;95887.72;5034891;28;20045;-78
2023/07/28 09:46:17;;;;;;;0.20;0.20;;;;;;;20.29;100.00;95889.69;5037431;28;20040;-78
2023/07/28 09:49:12;;;;;;;0.20;0.20;;;;;;;19.44;100.00;95892.13;5034294;28;20041;-77
2023/07/28 09:52:03;;;;;;;0.10;0.10;;;;;;;19.31;100.00;95880.34;5035147;28;20041;-77
2023/07/28 09:54:54;;;;;;;0.13;0.13;;;;;;;19.64;100.00;95902.41;5034671;28;20449;-78
2023/07/28 09:57:45;;;;;;;0.22;0.22;;;;;;;19.95;100.00;95896.00;5036198;28;20457;-78
2023/07/28 10:00:31;;;;;;;;;;;;;;;20.12;100.00;95901.38;5038731;28;20865;-77
2023/07/28 10:03:17;;;;;;;0.20;0.20;;;;;;;20.81;100.00;95886.81;5036314;28;19975;-76
2023/07/28 10:06:04;;;;;;;0.10;0.10;;;;;;;20.97;100.00;95900.63;5036279;28;20033;-76
2023/07/28 10:08:49;;;;;;;0.15;0.15;;;;;;;21.71;100.00;95894.53;5033280;28;20041;-76
2023/07/28 10:11:36;;;;;;;0.15;0.15;;;;;;;21.84;100.00;95900.84;5035011;28;20369;-77
2023/07/28 10:14:30;;;;;;;0.10;0.10;;;;;;;21.58;100.00;95899.16;5032718;28;20342;-79
2023/07/28 10:17:17;;;;;;;0.20;0.20;;;;;;;21.77;100.00;95900.59;5036341;28;20151;-77
2023/07/28 10:20:27;;;;;;;0.10;0.10;;;;;;;21.58;100.00;95901.06;5022095;28;20040;-79
2023/07/28 10:23:20;;;;;;;0.20;0.20;;;;;;;21.50;100.00;95902.72;5034751;28;20151;-77
2023/07/28 10:26:06;;;;;;;0.10;0.10;;;;;;;20.78;100.00;95899.13;5031105;28;20079;-79
2023/07/28 10:28:51;;;;;;;0.13;0.13;;;;;;;20.42;100.00;95904.19;5027003;28;20596;-77
2023/07/28 10:31:49;;;;;;;0.10;0.10;;;;;;;20.59;100.00;95906.88;5033438;28;20041;-79
2023/07/28 10:34:35;;;;;;;0.10;0.10;;;;;;;20.43;100.00;95908.50;5036750;28;20712;-77
2023/07/28 10:37:23;;;;;;;0.10;0.10;;;;;;;20.61;100.00;95915.50;5014737;28;20052;-77
2023/07/28 10:40:36;;;;;;;0.10;0.10;;;;;;;20.20;100.00;95916.06;5029070;28;20677;-78
2023/07/28 10:43:22;;;;;;;0.20;0.20;;;;;;;19.86;100.00;95925.06;5018994;28;20044;-77
2023/07/28 10:46:09;;;;;;;0.10;0.10;;;;;;;20.11;100.00;95926.94;5019603;28;20470;-77
2023/07/28 10:48:55;;;;;;;0.10;0.10;;;;;;;19.97;100.00;95923.59;5030074;28;20772;-76
2023/07/28 10:51:41;;;;;;;0.10;0.10;;;;;;;20.10;100.00;95922.66;5034762;28;20041;-77
2023/07/28 10:54:27;;;;;;;0.10;0.10;;;;;;;20.74;100.00;95900.91;5035306;28;20103;-76
2023/07/28 10:57:15;;;;;;;0.20;0.20;;;;;;;22.52;100.00;95912.22;5029265;28;20383;-78
2023/07/28 11:00:02;;;;;;;0.20;0.20;;;;;;;22.60;100.00;95907.81;5031331;28;20045;-77
2023/07/28 11:02:51;;;;;;;0.10;0.10;;;;;;;22.22;100.00;95906.91;5014179;28;20048;-79
2023/07/28 11:05:37;;;;;;;0.20;0.20;;;;;;;21.67;100.00;95907.25;5018781;28;20494;-78
2023/07/28 11:08:23;;;;;;;0.10;0.10;;;;;;;21.65;100.00;95909.50;5029852;28;20084;-78
2023/07/28 11:11:29;;;;;;;0.10;0.10;;;;;;;21.37;100.00;95910.00;4987742;28;20117;-79
2023/07/28 11:14:22;;;;;;;0.10;0.10;;;;;;;20.91;100.00;95918.25;4891845;28;20824;-76
2023/07/28 11:17:08;;;;;;;0.10;0.10;;;;;;;20.62;100.00;95921.72;5030019;28;20040;-77
2023/07/28 11:19:55;;;;;;;0.10;0.10;;;;;;;20.49;100.00;95921.63;5032902;28;20132;-76
2023/07/28 11:22:45;;;;;;;0.10;0.10;;;;;;;20.40;100.00;95922.75;5031822;28;20044;-79
2023/07/28 11:25:32;;;;;;;0.10;0.10;;;;;;;20.52;100.00;95925.59;5017460;28;20044;-75
2023/07/28 11:28:19;;;;;;;0.10;0.10;;;;;;;20.95;100.00;95922.72;5035725;28;20586;-76
2023/07/28 11:31:05;;;;;;;0.10;0.10;;;;;;;21.09;100.00;95922.50;5034305;28;20053;-78
2023/07/28 11:33:51;;;;;;;0.20;0.20;;;;;;;21.44;100.00;95928.53;5036010;28;20045;-78
2023/07/28 11:36:38;;;;;;;0.10;0.10;;;;;;;21.55;100.00;95918.84;5034290;28;20945;-77
2023/07/28 11:39:25;;;;;;;0.13;0.13;;;;;;;21.76;100.00;95924.28;5031627;28;20063;-77
2023/07/28 11:42:11;;;;;;;0.20;0.20;;;;;;;22.50;100.00;95919.94;5030694;28;20076;-76
2023/07/28 11:44:57;;;;;;;0.10;0.10;;;;;;;21.88;100.00;95916.19;5036312;28;20048;-77
2023/07/28 11:48:00;;;;;;;0.10;0.10;;;;;;;21.72;100.00;95917.16;5035313;28;20309;-78
2023/07/28 11:50:50;;;;;;;0.10;0.10;;;;;;;21.71;100.00;95919.03;5035697;28;20550;-77
2023/07/28 11:53:37;;;;;;;0.20;0.20;;;;;;;21.85;100.00;95911.41;5027187;28;20072;-75
2023/07/28 11:56:24;;;;;;;0.15;0.15;;;;;;;22.21;100.00;95915.44;5035274;28;20048;-75
2023/07/28 11:59:11;;;;;;;0.20;0.20;;;;;;;22.58;100.00;95919.06;5034609;28;20083;-76
2023/07/28 12:02:04;;;;;;;0.10;0.10;;;;;;;23.85;100.00;95913.31;5035706;28;20387;-76
2023/07/28 12:04:53;;;;;;;0.10;0.10;;;;;;;23.48;100.00;95914.53;5035064;28;20432;-76
2023/07/28 12:07:39;;;;;;;0.10;0.10;;;;;;;22.69;100.00;95912.03;5034185;28;20706;-76
2023/07/28 12:10:25;;;;;;;0.10;0.10;;;;;;;22.09;100.00;95910.72;5036280;28;20682;-78
2023/07/28 12:13:11;;;;;;;0.10;0.10;;;;;;;21.28;100.00;95906.56;5031755;28;20045;-78
2023/07/28 12:15:56;;;;;;;0.00;0.00;;;;;;;20.84;100.00;95910.59;5036356;28;20041;-75
2023/07/28 12:18:48;;;;;;;0.10;0.10;;;;;;;20.55;100.00;95924.97;5037075;28;20045;-77
2023/07/28 12:21:34;;;;;;;0.20;0.20;;;;;;;20.69;100.00;95920.09;5037466;28;20049;-78
2023/07/28 12:24:20;;;;;;;0.20;0.20;;;;;;;21.74;100.00;95912.16;5037086;28;20627;-76
2023/07/28 12:27:10;;;;;;;0.20;0.20;;;;;;;25.30;100.00;95911.25;5034366;28;20780;-78
2023/07/28 12:29:56;;;;;;;0.20;0.20;;;;;;;25.99;100.00;95912.34;5034451;28;20033;-75
2023/07/28 12:32:43;;;;;;;0.10;0.10;;;;;;;24.53;100.00;95923.41;5035031;28;20126;-76
2023/07/28 12:35:34;;;;;;;0.17;0.17;;;;;;;23.25;100.00;95911.47;5037327;28;20040;-76
2023/07/28 12:38:20;;;;;;;0.15;0.15;;;;;;;23.55;100.00;95918.25;5035763;28;20049;-77
2023/07/28 12:41:08;;;;;;;0.10;0.10;;;;;;;24.59;100.00;95910.25;5026499;28;20122;-76
2023/07/28 12:43:54;;;;;;;0.20;0.20;;;;;;;27.67;100.00;95913.34;5029879;28;20406;-76
2023/07/28 12:46:40;;;;;;;0.20;0.20;;;;;;;28.58;100.00;95910.13;5036730;28;20036;-78
2023/07/28 12:49:26;;;;;;;0.10;0.10;;;;;;;28.33;100.00;95911.84;5035379;28;20044;-77
2023/07/28 12:52:12;;;;;;;0.10;0.10;;;;;;;27.31;100.00;95907.28;5035499;28;20044;-77
2023/07/28 12:54:58;;;;;;;0.10;0.10;;;;;;;25.52;100.00;95918.75;5023312;28;20041;-76
2023/07/28 12:57:45;;;;;;;0.00;0.00;;;;;;;23.47;100.00;95911.00;5036378;28;20091;-79
2023/07/28 13:00:30;;;;;;;0.10;0.10;;;;;;;22.03;100.00;95914.78;5037286;28;20091;-78
2023/07/28 13:03:16;;;;;;;0.00;0.00;;;;;;;21.47;100.00;95916.97;5035784;28;20062;-76